Lancaster Airport Lancaster US
ICAO: KLNS
IATA: LNS
Category: Medium
Scheduled Services: Yes

Elevation: 403 ft
TransAlt. 18000 ft.

Airport Communications:
HARRISBURG APP/DEP:126.45
ATIS:125.675
CTAF:120.9
GND:121.8
WILLIAMSPORT RDO:117.3
TWR:120.9
UNICOM:122.95

KLNS Zoom In..

If Map Doesn't Load, Click Here

Runways:

(A) RW 08 length 6933 ft width 150 ft
ILS 108.70 / hdg 77

(B) RW 13 length 4102 ft width 100 ft
---- / hdg 128

(C) RW 26 length 6933 ft width 150 ft
---- / hdg 257

(D) RW 31 length 4102 ft width 100 ft
---- / hdg 308

Location; KLNS
Day. 26 / Time. 09.53 Zulu
* Altimeter: 30.01
* Temperature: 22° c. 71.6°f.
* Wind from: 160° Speed 03 kn.
Dewpoint: 22° c.
Visibility: 5 Statute Miles.
Clouds: Broken 1700 ft.
Conditions: Mist.

KLNS 260953Z AUTO 16003KT 5SM BR BKN017 22/22 A3001 RMK AO2 SLP161 T02170217


Wind From 160°
Speed 03 kn.

 
 
jpsmedia.com for Web Design worldairports.se 2018   terms of use